Wednesday, October 22, 2014, 9:48 AM EDT

KMUI, Muir Army Air Field / Indiantown

Location: Jonestown, PA, United States Lat: 40.433
Local Time: 9:48 AM EDT (13:48 GMT) Lon: -76.567
Time Zone: US/Eastern Elev: 488 ft

Show me the last for .
Show Decoded

2014-10-22 09:32 METAR KMUI 221332Z AUTO 36009G16KT 9SM -RA FEW022 SCT028 SCT034 BKN044 OVC065
                 12/12 A2997 RMK AO2 RAB1310 $ =
2014-10-22 09:10 METAR KMUI 221310Z AUTO 01006KT 10SM -RA BKN021 OVC028 13/12 A2996 RMK AO2
                 RAB1310 BKN V OVC $ =
2014-10-22 08:58 METAR KMUI 221258Z AUTO 01009G16KT 10SM OVC021 13/12 A2996 RMK AO2 OVC V BKN
                 SLP149 T01290115 $ =
2014-10-22 08:42 METAR KMUI 221242Z AUTO 01007G16KT 10SM BKN022 13/11 A2996 RMK AO2 CIG 022V080
                 BKN V SCT $ =
2014-10-22 08:40 METAR KMUI 221240Z AUTO 02006G16KT 10SM SCT022 13/11 A2996 RMK AO2 $ =
2014-10-22 08:08 METAR KMUI 221208Z AUTO 01009G19KT 10SM FEW022 SCT080 13/11 A2994 RMK AO2 =
2014-10-22 08:06 METAR KMUI 221206Z 01010G19KT 10SM BKN023 OVC080 13/11 A2994 RMK AO2A =
2014-10-22 07:58 METAR KMUI 221158Z AUTO 36009G16KT 340V040 10SM FEW023 SCT055 13/11 A2994 RMK
                 AO2 SLP141 T01260114 10128 20122 52008 $ =
2014-10-22 07:26 METAR KMUI 221126Z AUTO 01004KT 10SM SCT023 BKN055 13/11 A2993 RMK AO2 $ =
2014-10-22 06:58 METAR KMUI 221058Z AUTO 34008G14KT 10SM BKN024 13/12 A2992 RMK AO2 BKN V OVC
                 SLP135 T01270116 $ =
2014-10-22 06:18 METAR KMUI 221018Z AUTO VRB04KT 10SM BKN024 BKN030 OVC110 13/12 A2992 RMK AO2
                 CIG 024V110 BKN024 V FEW $ =
2014-10-22 05:58 METAR KMUI 220958Z AUTO VRB06KT 10SM FEW020 BKN110 13/12 A2992 RMK AO2 SLP135
                 T01260120 $ =
2014-10-22 05:38 METAR KMUI 220938Z AUTO VRB06KT 10SM SCT019 BKN110 13/12 A2991 RMK AO2 $ =
2014-10-22 05:18 METAR KMUI 220918Z AUTO 02007KT 10SM OVC019 13/12 A2991 RMK AO2 $ =
2014-10-22 04:58 METAR KMUI 220858Z AUTO 03008KT 10SM OVC021 13/12 A2991 RMK AO2 SLP131 T01260124
                 53002 $ =
2014-10-22 04:10 METAR KMUI 220810Z AUTO 04005KT 10SM BKN023 BKN070 BKN095 OVC110 12/12 A2990 RMK
                 AO2 CIG 023V110 BKN023 V FEW $ =
2014-10-22 03:58 METAR KMUI 220758Z AUTO 03005KT 10SM FEW023 SCT070 SCT095 OVC110 12/12 A2990 RMK
                 AO2 SLP128 T01240122 $ =
2014-10-22 02:58 METAR KMUI 220658Z AUTO 05007KT 10SM SCT080 OVC120 12/12 A2990 RMK AO2 SLP127
                 T01230122 $ =
2014-10-22 01:58 METAR KMUI 220558Z AUTO 02006KT 10SM OVC055 12/12 A2990 RMK AO2 SLP128 T01240118
                 10139 20121 57005 $ =
2014-10-22 00:58 METAR KMUI 220458Z AUTO 06003KT 10SM BKN044 OVC055 12/12 A2991 RMK AO2 SLP131
                 T01230116 401720079 $ =
2014-10-21 23:58 METAR KMUI 220358Z AUTO VRB03KT 10SM FEW039 BKN100 12/12 A2991 RMK AO2 SLP131
                 T01210115 $ =
2014-10-21 22:58 METAR KMUI 220258Z AUTO VRB02KT 10SM OVC070 13/11 A2992 RMK AO2 SLP135 T01310114
                 52013 $ =
2014-10-21 21:58 METAR KMUI 220158Z AUTO VRB03KT 10SM OVC060 14/11 A2991 RMK AO2 SLP132 T01350110
                 $ =
2014-10-21 20:58 METAR KMUI 220058Z AUTO 00000KT 10SM BKN060 BKN150 BKN170 13/11 A2990 RMK AO2
                 SLP128 T01330110 $ =
2014-10-21 19:58 METAR KMUI 212358Z AUTO 00000KT 10SM BKN060 BKN160 14/11 A2988 RMK AO2 SLP122
                 T01380107 10172 20134 52016 $ =
2014-10-21 18:58 METAR KMUI 212258Z AUTO 00000KT 10SM SCT090 BKN110 14/11 A2987 RMK AO2 SLP118
                 T01360113 $ =
2014-10-21 17:58 METAR KMUI 212158Z AUTO 36003KT 10SM BKN090 OVC110 15/12 A2985 RMK AO2 SLP111
                 T01500115 $ =
2014-10-21 16:58 METAR KMUI 212058Z AUTO 01004KT 10SM BKN085 17/10 A2983 RMK AO2 SLP104 T01650103
                 55002 $ =
2014-10-21 15:58 METAR KMUI 211958Z AUTO 31002KT 10SM FEW095 16/10 A2983 RMK AO2 SLP104 T01640103
                 $ =
2014-10-21 14:58 METAR KMUI 211858Z AUTO 34004KT 10SM BKN060 17/12 A2983 RMK AO2 SLP104 T01670117
                 $ =
2014-10-21 13:58 METAR KMUI 211758Z AUTO 32004KT 10SM FEW028 OVC044 16/12 A2984 RMK AO2 SLP108
                 T01580119 10166 20081 57014 $ =
2014-10-21 12:58 METAR KMUI 211658Z AUTO 26004KT 10SM OVC049 15/13 A2985 RMK AO2 SLP111 T01520128
                 $ =
2014-10-21 12:20 METAR KMUI 211620Z AUTO VRB02KT 10SM SCT018 SCT024 BKN080 16/13 A2987 RMK AO2 $
                 =
2014-10-21 11:58 METAR KMUI 211558Z AUTO 00000KT 10SM SCT012 OVC024 16/14 A2987 RMK AO2 CIG
                 012V024 OVC V BKN SLP118 T01550139 $ =
2014-10-21 11:56 METAR KMUI 211556Z AUTO VRB01KT 10SM SCT012 OVC024 15/14 A2987 RMK AO2 CIG
                 012V024 OVC V BKN $ =
2014-10-21 11:02 METAR KMUI 211502Z AUTO VRB03KT 10SM BKN011 OVC080 13/13 A2988 RMK AO2 CIG
                 011V080 BKN V SCT $ =
2014-10-21 10:58 METAR KMUI 211458Z AUTO VRB02KT 10SM SCT012 OVC080 13/13 A2988 RMK AO2 SLP122
                 T01290129 $ =
2014-10-21 10:24 METAR KMUI 211424Z AUTO VRB01KT 10SM SCT009 BKN085 13/13 A2988 RMK AO2 $ =

Support USWX by starting your Amazon purchase here.